sensor_id;sensor_type;location;lat;lon;timestamp;P1;durP1;ratioP1;P2;durP2;ratioP2
80503;SDS011;69825;51.190;6.808;2023-06-05T00:00:10;1.50;;;1.40;;
80503;SDS011;69825;51.190;6.808;2023-06-05T00:02:36;1.20;;;1.20;;
80503;SDS011;69825;51.190;6.808;2023-06-05T00:05:02;1.20;;;1.10;;
80503;SDS011;69825;51.190;6.808;2023-06-05T00:07:28;1.33;;;1.20;;
80503;SDS011;69825;51.190;6.808;2023-06-05T00:09:53;1.52;;;1.30;;
80503;SDS011;69825;51.190;6.808;2023-06-05T00:12:18;1.38;;;1.30;;
80503;SDS011;69825;51.190;6.808;2023-06-05T00:14:44;1.38;;;1.27;;
80503;SDS011;69825;51.190;6.808;2023-06-05T00:17:09;1.10;;;1.00;;
80503;SDS011;69825;51.190;6.808;2023-06-05T00:19:35;1.02;;;1.02;;
80503;SDS011;69825;51.190;6.808;2023-06-05T00:22:00;1.42;;;1.17;;
80503;SDS011;69825;51.190;6.808;2023-06-05T00:24:26;1.17;;;1.17;;
80503;SDS011;69825;51.190;6.808;2023-06-05T00:26:51;1.00;;;1.00;;
80503;SDS011;69825;51.190;6.808;2023-06-05T00:29:17;1.80;;;1.20;;
80503;SDS011;69825;51.190;6.808;2023-06-05T00:31:42;1.42;;;1.33;;
80503;SDS011;69825;51.190;6.808;2023-06-05T00:34:08;1.42;;;1.20;;
80503;SDS011;69825;51.190;6.808;2023-06-05T00:36:34;1.33;;;1.10;;
80503;SDS011;69825;51.190;6.808;2023-06-05T00:39:01;1.33;;;1.23;;
80503;SDS011;69825;51.190;6.808;2023-06-05T00:41:27;1.35;;;1.20;;
80503;SDS011;69825;51.190;6.808;2023-06-05T00:43:52;2.33;;;1.33;;
80503;SDS011;69825;51.190;6.808;2023-06-05T00:46:18;1.23;;;1.23;;
80503;SDS011;69825;51.190;6.808;2023-06-05T00:48:44;1.15;;;1.05;;
80503;SDS011;69825;51.190;6.808;2023-06-05T00:51:13;1.33;;;1.13;;
80503;SDS011;69825;51.190;6.808;2023-06-05T00:53:40;1.08;;;1.05;;
80503;SDS011;69825;51.190;6.808;2023-06-05T00:56:09;1.25;;;1.10;;
80503;SDS011;69825;51.190;6.808;2023-06-05T00:58:34;1.35;;;1.10;;
80503;SDS011;69825;51.190;6.808;2023-06-05T01:01:00;1.23;;;1.17;;
80503;SDS011;69825;51.190;6.808;2023-06-05T01:03:29;1.25;;;1.15;;
80503;SDS011;69825;51.190;6.808;2023-06-05T01:05:58;1.92;;;1.15;;
80503;SDS011;69825;51.190;6.808;2023-06-05T01:08:29;1.23;;;1.13;;
80503;SDS011;69825;51.190;6.808;2023-06-05T01:11:03;1.50;;;1.20;;
80503;SDS011;69825;51.190;6.808;2023-06-05T01:13:34;1.20;;;1.13;;
80503;SDS011;69825;51.190;6.808;2023-06-05T01:16:03;1.42;;;1.33;;
80503;SDS011;69825;51.190;6.808;2023-06-05T01:18:30;1.30;;;1.20;;
80503;SDS011;69825;51.190;6.808;2023-06-05T01:20:59;1.23;;;1.13;;
80503;SDS011;69825;51.190;6.808;2023-06-05T01:23:26;1.27;;;1.17;;
80503;SDS011;69825;51.190;6.808;2023-06-05T01:25:55;1.30;;;1.30;;
80503;SDS011;69825;51.190;6.808;2023-06-05T01:28:27;1.60;;;1.45;;
80503;SDS011;69825;51.190;6.808;2023-06-05T01:30:57;1.30;;;1.20;;
80503;SDS011;69825;51.190;6.808;2023-06-05T01:33:29;1.00;;;1.00;;
80503;SDS011;69825;51.190;6.808;2023-06-05T01:35:59;1.40;;;1.30;;
80503;SDS011;69825;51.190;6.808;2023-06-05T01:38:29;1.20;;;1.20;;
80503;SDS011;69825;51.190;6.808;2023-06-05T01:40:57;1.25;;;1.15;;
80503;SDS011;69825;51.190;6.808;2023-06-05T01:43:23;1.45;;;1.35;;
80503;SDS011;69825;51.190;6.808;2023-06-05T01:45:49;1.73;;;1.23;;
80503;SDS011;69825;51.190;6.808;2023-06-05T01:48:15;1.25;;;1.20;;
80503;SDS011;69825;51.190;6.808;2023-06-05T01:50:41;1.02;;;1.00;;
80503;SDS011;69825;51.190;6.808;2023-06-05T01:53:07;1.58;;;1.00;;
80503;SDS011;69825;51.190;6.808;2023-06-05T01:55:34;1.20;;;1.10;;
80503;SDS011;69825;51.190;6.808;2023-06-05T01:58:03;1.20;;;1.10;;
80503;SDS011;69825;51.190;6.808;2023-06-05T02:00:29;1.05;;;1.02;;
80503;SDS011;69825;51.190;6.808;2023-06-05T02:02:55;1.10;;;1.00;;
80503;SDS011;69825;51.190;6.808;2023-06-05T02:05:21;1.30;;;1.20;;
80503;SDS011;69825;51.190;6.808;2023-06-05T02:07:49;1.45;;;1.35;;
80503;SDS011;69825;51.190;6.808;2023-06-05T02:10:19;1.65;;;1.20;;
80503;SDS011;69825;51.190;6.808;2023-06-05T02:12:44;1.33;;;1.20;;
80503;SDS011;69825;51.190;6.808;2023-06-05T02:15:10;1.10;;;1.00;;
80503;SDS011;69825;51.190;6.808;2023-06-05T02:17:39;1.02;;;0.93;;
80503;SDS011;69825;51.190;6.808;2023-06-05T02:20:12;1.20;;;1.10;;
80503;SDS011;69825;51.190;6.808;2023-06-05T02:22:38;1.63;;;1.20;;
80503;SDS011;69825;51.190;6.808;2023-06-05T02:25:04;1.83;;;1.05;;
80503;SDS011;69825;51.190;6.808;2023-06-05T02:27:30;1.30;;;1.20;;
80503;SDS011;69825;51.190;6.808;2023-06-05T02:29:55;1.10;;;1.10;;
80503;SDS011;69825;51.190;6.808;2023-06-05T02:32:21;1.50;;;1.30;;
80503;SDS011;69825;51.190;6.808;2023-06-05T02:34:50;1.30;;;1.20;;
80503;SDS011;69825;51.190;6.808;2023-06-05T02:37:16;1.10;;;1.00;;
80503;SDS011;69825;51.190;6.808;2023-06-05T02:39:42;1.30;;;1.00;;
80503;SDS011;69825;51.190;6.808;2023-06-05T02:42:07;1.85;;;1.20;;
80503;SDS011;69825;51.190;6.808;2023-06-05T02:44:33;2.15;;;1.17;;
80503;SDS011;69825;51.190;6.808;2023-06-05T02:46:58;1.10;;;1.10;;
80503;SDS011;69825;51.190;6.808;2023-06-05T02:49:24;1.23;;;1.10;;
80503;SDS011;69825;51.190;6.808;2023-06-05T02:51:49;0.90;;;0.90;;
80503;SDS011;69825;51.190;6.808;2023-06-05T02:54:14;1.35;;;1.25;;
80503;SDS011;69825;51.190;6.808;2023-06-05T02:56:40;1.10;;;1.10;;
80503;SDS011;69825;51.190;6.808;2023-06-05T02:59:05;1.33;;;1.23;;
80503;SDS011;69825;51.190;6.808;2023-06-05T03:01:30;1.30;;;1.25;;
80503;SDS011;69825;51.190;6.808;2023-06-05T03:03:59;1.05;;;1.00;;
80503;SDS011;69825;51.190;6.808;2023-06-05T03:06:28;1.20;;;1.10;;
80503;SDS011;69825;51.190;6.808;2023-06-05T03:08:58;1.00;;;1.00;;
80503;SDS011;69825;51.190;6.808;2023-06-05T03:11:24;1.48;;;1.17;;
80503;SDS011;69825;51.190;6.808;2023-06-05T03:13:50;1.05;;;1.00;;
80503;SDS011;69825;51.190;6.808;2023-06-05T03:16:15;1.27;;;1.05;;
80503;SDS011;69825;51.190;6.808;2023-06-05T03:18:42;1.00;;;1.00;;
80503;SDS011;69825;51.190;6.808;2023-06-05T03:21:08;1.00;;;1.00;;
80503;SDS011;69825;51.190;6.808;2023-06-05T03:23:35;1.15;;;1.15;;
80503;SDS011;69825;51.190;6.808;2023-06-05T03:26:00;1.10;;;1.10;;
80503;SDS011;69825;51.190;6.808;2023-06-05T03:28:27;1.10;;;1.00;;
80503;SDS011;69825;51.190;6.808;2023-06-05T03:30:52;1.27;;;1.20;;
80503;SDS011;69825;51.190;6.808;2023-06-05T03:33:17;1.55;;;1.30;;
80503;SDS011;69825;51.190;6.808;2023-06-05T03:35:43;1.10;;;1.10;;
80503;SDS011;69825;51.190;6.808;2023-06-05T03:38:11;1.25;;;1.00;;
80503;SDS011;69825;51.190;6.808;2023-06-05T03:40:37;1.10;;;1.10;;
80503;SDS011;69825;51.190;6.808;2023-06-05T03:43:04;0.90;;;0.90;;
80503;SDS011;69825;51.190;6.808;2023-06-05T03:45:33;0.93;;;0.93;;
80503;SDS011;69825;51.190;6.808;2023-06-05T03:48:00;1.38;;;1.10;;
80503;SDS011;69825;51.190;6.808;2023-06-05T03:50:26;1.13;;;1.08;;
80503;SDS011;69825;51.190;6.808;2023-06-05T03:52:53;1.10;;;1.10;;
80503;SDS011;69825;51.190;6.808;2023-06-05T03:55:29;1.08;;;1.05;;
80503;SDS011;69825;51.190;6.808;2023-06-05T03:58:05;1.00;;;1.00;;
80503;SDS011;69825;51.190;6.808;2023-06-05T04:00:32;1.17;;;1.10;;
80503;SDS011;69825;51.190;6.808;2023-06-05T04:02:58;1.00;;;1.00;;
80503;SDS011;69825;51.190;6.808;2023-06-05T04:05:24;1.40;;;1.30;;
80503;SDS011;69825;51.190;6.808;2023-06-05T04:07:49;1.00;;;1.00;;
80503;SDS011;69825;51.190;6.808;2023-06-05T04:10:15;1.00;;;1.00;;
80503;SDS011;69825;51.190;6.808;2023-06-05T04:12:40;1.30;;;1.10;;
80503;SDS011;69825;51.190;6.808;2023-06-05T04:15:06;1.23;;;1.08;;
80503;SDS011;69825;51.190;6.808;2023-06-05T04:17:32;1.00;;;1.00;;
80503;SDS011;69825;51.190;6.808;2023-06-05T04:19:57;0.98;;;0.98;;
80503;SDS011;69825;51.190;6.808;2023-06-05T04:22:22;1.10;;;1.10;;
80503;SDS011;69825;51.190;6.808;2023-06-05T04:24:48;1.10;;;1.10;;
80503;SDS011;69825;51.190;6.808;2023-06-05T04:27:13;1.05;;;1.05;;
80503;SDS011;69825;51.190;6.808;2023-06-05T04:29:39;2.10;;;1.25;;
80503;SDS011;69825;51.190;6.808;2023-06-05T04:32:04;0.98;;;0.98;;
80503;SDS011;69825;51.190;6.808;2023-06-05T04:34:30;0.90;;;0.90;;
80503;SDS011;69825;51.190;6.808;2023-06-05T04:36:56;0.90;;;0.90;;
80503;SDS011;69825;51.190;6.808;2023-06-05T04:39:21;1.10;;;1.00;;
80503;SDS011;69825;51.190;6.808;2023-06-05T04:41:46;1.10;;;1.00;;
80503;SDS011;69825;51.190;6.808;2023-06-05T04:44:12;1.20;;;1.10;;
80503;SDS011;69825;51.190;6.808;2023-06-05T04:46:45;1.20;;;1.10;;
80503;SDS011;69825;51.190;6.808;2023-06-05T04:49:14;0.90;;;0.90;;
80503;SDS011;69825;51.190;6.808;2023-06-05T04:51:41;1.00;;;1.00;;
80503;SDS011;69825;51.190;6.808;2023-06-05T04:54:08;1.08;;;1.08;;
80503;SDS011;69825;51.190;6.808;2023-06-05T04:56:34;1.00;;;1.00;;
80503;SDS011;69825;51.190;6.808;2023-06-05T04:59:01;1.00;;;1.00;;
80503;SDS011;69825;51.190;6.808;2023-06-05T05:01:28;1.00;;;1.00;;
80503;SDS011;69825;51.190;6.808;2023-06-05T05:03:54;1.98;;;1.20;;
80503;SDS011;69825;51.190;6.808;2023-06-05T05:06:19;1.20;;;1.10;;
80503;SDS011;69825;51.190;6.808;2023-06-05T05:08:46;1.08;;;1.05;;
80503;SDS011;69825;51.190;6.808;2023-06-05T05:11:13;1.52;;;1.00;;
80503;SDS011;69825;51.190;6.808;2023-06-05T05:13:38;0.82;;;0.82;;
80503;SDS011;69825;51.190;6.808;2023-06-05T05:16:04;1.70;;;1.20;;
80503;SDS011;69825;51.190;6.808;2023-06-05T05:18:29;1.65;;;1.30;;
80503;SDS011;69825;51.190;6.808;2023-06-05T05:20:55;2.72;;;1.30;;
80503;SDS011;69825;51.190;6.808;2023-06-05T05:23:20;1.40;;;1.30;;
80503;SDS011;69825;51.190;6.808;2023-06-05T05:25:46;2.17;;;1.50;;
80503;SDS011;69825;51.190;6.808;2023-06-05T05:28:12;1.80;;;1.65;;
80503;SDS011;69825;51.190;6.808;2023-06-05T05:30:38;4.22;;;1.90;;
80503;SDS011;69825;51.190;6.808;2023-06-05T05:33:03;4.03;;;1.60;;
80503;SDS011;69825;51.190;6.808;2023-06-05T05:35:29;4.63;;;2.10;;
80503;SDS011;69825;51.190;6.808;2023-06-05T05:37:55;3.90;;;2.42;;
80503;SDS011;69825;51.190;6.808;2023-06-05T05:40:20;3.05;;;2.10;;
80503;SDS011;69825;51.190;6.808;2023-06-05T05:42:46;5.10;;;2.17;;
80503;SDS011;69825;51.190;6.808;2023-06-05T05:45:11;2.90;;;2.33;;
80503;SDS011;69825;51.190;6.808;2023-06-05T05:47:36;5.25;;;2.65;;
80503;SDS011;69825;51.190;6.808;2023-06-05T05:50:02;3.90;;;2.40;;
80503;SDS011;69825;51.190;6.808;2023-06-05T05:52:27;3.60;;;2.30;;
80503;SDS011;69825;51.190;6.808;2023-06-05T05:54:52;4.88;;;2.55;;
80503;SDS011;69825;51.190;6.808;2023-06-05T05:57:18;5.72;;;2.80;;
80503;SDS011;69825;51.190;6.808;2023-06-05T05:59:43;4.63;;;2.38;;
80503;SDS011;69825;51.190;6.808;2023-06-05T06:02:12;3.65;;;1.95;;
80503;SDS011;69825;51.190;6.808;2023-06-05T06:04:38;4.03;;;2.75;;
80503;SDS011;69825;51.190;6.808;2023-06-05T06:07:04;5.65;;;2.50;;
80503;SDS011;69825;51.190;6.808;2023-06-05T06:09:30;4.70;;;2.50;;
80503;SDS011;69825;51.190;6.808;2023-06-05T06:11:56;3.08;;;1.90;;
80503;SDS011;69825;51.190;6.808;2023-06-05T06:14:22;3.35;;;2.25;;
80503;SDS011;69825;51.190;6.808;2023-06-05T06:16:48;3.83;;;2.20;;
80503;SDS011;69825;51.190;6.808;2023-06-05T06:19:15;3.15;;;1.90;;
80503;SDS011;69825;51.190;6.808;2023-06-05T06:21:41;5.05;;;1.95;;
80503;SDS011;69825;51.190;6.808;2023-06-05T06:24:07;2.88;;;2.00;;
80503;SDS011;69825;51.190;6.808;2023-06-05T06:26:33;2.78;;;1.90;;
80503;SDS011;69825;51.190;6.808;2023-06-05T06:28:58;3.75;;;2.10;;
80503;SDS011;69825;51.190;6.808;2023-06-05T06:31:25;2.78;;;2.03;;
80503;SDS011;69825;51.190;6.808;2023-06-05T06:33:50;3.17;;;2.10;;
80503;SDS011;69825;51.190;6.808;2023-06-05T06:36:16;2.72;;;2.10;;
80503;SDS011;69825;51.190;6.808;2023-06-05T06:38:43;2.28;;;1.98;;
80503;SDS011;69825;51.190;6.808;2023-06-05T06:41:08;2.10;;;1.90;;
80503;SDS011;69825;51.190;6.808;2023-06-05T06:43:34;2.30;;;2.00;;
80503;SDS011;69825;51.190;6.808;2023-06-05T06:45:59;3.55;;;2.10;;
80503;SDS011;69825;51.190;6.808;2023-06-05T06:48:25;5.45;;;2.20;;
80503;SDS011;69825;51.190;6.808;2023-06-05T06:50:50;2.30;;;2.10;;
80503;SDS011;69825;51.190;6.808;2023-06-05T06:53:17;3.80;;;1.95;;
80503;SDS011;69825;51.190;6.808;2023-06-05T06:55:43;2.25;;;1.90;;
80503;SDS011;69825;51.190;6.808;2023-06-05T06:58:08;2.25;;;1.88;;
80503;SDS011;69825;51.190;6.808;2023-06-05T07:00:34;2.55;;;1.80;;
80503;SDS011;69825;51.190;6.808;2023-06-05T07:02:59;2.72;;;2.10;;
80503;SDS011;69825;51.190;6.808;2023-06-05T07:05:25;2.53;;;2.08;;
80503;SDS011;69825;51.190;6.808;2023-06-05T07:07:50;2.90;;;2.00;;
80503;SDS011;69825;51.190;6.808;2023-06-05T07:10:16;2.67;;;2.20;;
80503;SDS011;69825;51.190;6.808;2023-06-05T07:12:41;2.40;;;2.20;;
80503;SDS011;69825;51.190;6.808;2023-06-05T07:15:06;2.17;;;1.98;;
80503;SDS011;69825;51.190;6.808;2023-06-05T07:17:32;2.42;;;1.90;;
80503;SDS011;69825;51.190;6.808;2023-06-05T07:19:57;3.70;;;2.00;;
80503;SDS011;69825;51.190;6.808;2023-06-05T07:22:23;2.78;;;2.00;;
80503;SDS011;69825;51.190;6.808;2023-06-05T07:24:53;2.40;;;1.80;;
80503;SDS011;69825;51.190;6.808;2023-06-05T07:27:18;2.63;;;1.88;;
80503;SDS011;69825;51.190;6.808;2023-06-05T07:29:45;3.83;;;1.73;;
80503;SDS011;69825;51.190;6.808;2023-06-05T07:32:10;3.20;;;1.70;;
80503;SDS011;69825;51.190;6.808;2023-06-05T07:34:35;2.70;;;1.90;;
80503;SDS011;69825;51.190;6.808;2023-06-05T07:37:01;1.98;;;1.63;;
80503;SDS011;69825;51.190;6.808;2023-06-05T07:39:26;2.35;;;1.70;;
80503;SDS011;69825;51.190;6.808;2023-06-05T07:41:53;2.30;;;1.80;;
80503;SDS011;69825;51.190;6.808;2023-06-05T07:44:19;2.00;;;1.80;;
80503;SDS011;69825;51.190;6.808;2023-06-05T07:46:46;1.70;;;1.60;;
80503;SDS011;69825;51.190;6.808;2023-06-05T07:49:13;2.35;;;2.05;;
80503;SDS011;69825;51.190;6.808;2023-06-05T07:51:40;2.08;;;1.70;;
80503;SDS011;69825;51.190;6.808;2023-06-05T07:54:08;1.80;;;1.70;;
80503;SDS011;69825;51.190;6.808;2023-06-05T07:56:37;2.65;;;1.60;;
80503;SDS011;69825;51.190;6.808;2023-06-05T07:59:04;3.83;;;1.90;;
80503;SDS011;69825;51.190;6.808;2023-06-05T08:01:30;2.25;;;1.50;;
80503;SDS011;69825;51.190;6.808;2023-06-05T08:03:57;3.63;;;1.60;;
80503;SDS011;69825;51.190;6.808;2023-06-05T08:06:23;2.33;;;1.38;;
80503;SDS011;69825;51.190;6.808;2023-06-05T08:08:49;1.70;;;1.60;;
80503;SDS011;69825;51.190;6.808;2023-06-05T08:11:14;2.60;;;1.60;;
80503;SDS011;69825;51.190;6.808;2023-06-05T08:13:40;2.40;;;1.50;;
80503;SDS011;69825;51.190;6.808;2023-06-05T08:16:05;1.90;;;1.40;;
80503;SDS011;69825;51.190;6.808;2023-06-05T08:18:31;1.63;;;1.40;;
80503;SDS011;69825;51.190;6.808;2023-06-05T08:20:56;2.05;;;1.50;;
80503;SDS011;69825;51.190;6.808;2023-06-05T08:23:22;3.05;;;1.90;;
80503;SDS011;69825;51.190;6.808;2023-06-05T08:25:47;1.55;;;1.45;;
80503;SDS011;69825;51.190;6.808;2023-06-05T08:28:13;4.03;;;1.67;;
80503;SDS011;69825;51.190;6.808;2023-06-05T08:30:40;2.10;;;1.60;;
80503;SDS011;69825;51.190;6.808;2023-06-05T08:33:06;1.98;;;1.73;;
80503;SDS011;69825;51.190;6.808;2023-06-05T08:35:31;2.08;;;1.67;;
80503;SDS011;69825;51.190;6.808;2023-06-05T08:37:56;2.00;;;1.40;;
80503;SDS011;69825;51.190;6.808;2023-06-05T08:40:22;1.65;;;1.48;;
80503;SDS011;69825;51.190;6.808;2023-06-05T08:42:50;3.17;;;1.73;;
80503;SDS011;69825;51.190;6.808;2023-06-05T08:45:15;1.73;;;1.50;;
80503;SDS011;69825;51.190;6.808;2023-06-05T08:47:41;1.55;;;1.40;;
80503;SDS011;69825;51.190;6.808;2023-06-05T08:50:09;1.90;;;1.80;;
80503;SDS011;69825;51.190;6.808;2023-06-05T08:52:37;1.67;;;1.58;;
80503;SDS011;69825;51.190;6.808;2023-06-05T08:55:04;2.63;;;1.77;;
80503;SDS011;69825;51.190;6.808;2023-06-05T08:57:31;1.60;;;1.50;;
80503;SDS011;69825;51.190;6.808;2023-06-05T08:59:59;2.15;;;1.80;;
80503;SDS011;69825;51.190;6.808;2023-06-05T09:02:25;2.33;;;1.70;;
80503;SDS011;69825;51.190;6.808;2023-06-05T09:04:51;2.60;;;1.60;;
80503;SDS011;69825;51.190;6.808;2023-06-05T09:07:16;2.22;;;1.70;;
80503;SDS011;69825;51.190;6.808;2023-06-05T09:09:42;2.50;;;1.63;;
80503;SDS011;69825;51.190;6.808;2023-06-05T09:12:08;1.70;;;1.60;;
80503;SDS011;69825;51.190;6.808;2023-06-05T09:14:33;3.10;;;1.77;;
80503;SDS011;69825;51.190;6.808;2023-06-05T09:17:00;4.53;;;1.70;;
80503;SDS011;69825;51.190;6.808;2023-06-05T09:19:39;1.83;;;1.60;;
80503;SDS011;69825;51.190;6.808;2023-06-05T09:22:08;2.00;;;1.67;;
80503;SDS011;69825;51.190;6.808;2023-06-05T09:24:35;2.42;;;1.38;;
80503;SDS011;69825;51.190;6.808;2023-06-05T09:27:09;1.80;;;1.60;;
80503;SDS011;69825;51.190;6.808;2023-06-05T09:29:35;1.70;;;1.60;;
80503;SDS011;69825;51.190;6.808;2023-06-05T09:34:38;2.55;;;1.67;;
80503;SDS011;69825;51.190;6.808;2023-06-05T09:37:04;2.72;;;1.60;;
80503;SDS011;69825;51.190;6.808;2023-06-05T09:39:32;1.95;;;1.60;;
80503;SDS011;69825;51.190;6.808;2023-06-05T09:41:59;2.53;;;1.75;;
80503;SDS011;69825;51.190;6.808;2023-06-05T09:44:26;2.60;;;1.67;;
80503;SDS011;69825;51.190;6.808;2023-06-05T09:49:23;2.67;;;1.40;;
80503;SDS011;69825;51.190;6.808;2023-06-05T09:51:50;2.13;;;1.55;;
80503;SDS011;69825;51.190;6.808;2023-06-05T09:54:16;1.85;;;1.48;;
80503;SDS011;69825;51.190;6.808;2023-06-05T09:56:44;3.35;;;1.75;;
80503;SDS011;69825;51.190;6.808;2023-06-05T09:59:13;2.25;;;1.60;;
80503;SDS011;69825;51.190;6.808;2023-06-05T10:01:43;2.00;;;1.63;;
80503;SDS011;69825;51.190;6.808;2023-06-05T10:04:10;3.78;;;1.80;;
80503;SDS011;69825;51.190;6.808;2023-06-05T10:06:38;2.78;;;1.80;;
80503;SDS011;69825;51.190;6.808;2023-06-05T10:09:04;2.13;;;1.75;;
80503;SDS011;69825;51.190;6.808;2023-06-05T10:11:31;2.75;;;1.60;;
80503;SDS011;69825;51.190;6.808;2023-06-05T10:13:58;2.17;;;1.55;;
80503;SDS011;69825;51.190;6.808;2023-06-05T10:16:25;2.72;;;1.88;;
80503;SDS011;69825;51.190;6.808;2023-06-05T10:18:51;2.45;;;1.80;;
80503;SDS011;69825;51.190;6.808;2023-06-05T10:21:16;1.88;;;1.67;;
80503;SDS011;69825;51.190;6.808;2023-06-05T10:23:50;3.85;;;1.98;;
80503;SDS011;69825;51.190;6.808;2023-06-05T10:31:45;4.18;;;1.85;;
80503;SDS011;69825;51.190;6.808;2023-06-05T10:40:02;3.85;;;2.00;;
80503;SDS011;69825;51.190;6.808;2023-06-05T10:42:29;2.63;;;1.75;;
80503;SDS011;69825;51.190;6.808;2023-06-05T10:44:55;7.43;;;2.08;;
80503;SDS011;69825;51.190;6.808;2023-06-05T10:47:48;3.22;;;2.30;;
80503;SDS011;69825;51.190;6.808;2023-06-05T10:52:46;3.08;;;2.05;;
80503;SDS011;69825;51.190;6.808;2023-06-05T10:55:12;2.80;;;1.95;;
80503;SDS011;69825;51.190;6.808;2023-06-05T11:00:20;3.50;;;1.65;;
80503;SDS011;69825;51.190;6.808;2023-06-05T11:02:46;4.57;;;1.80;;
80503;SDS011;69825;51.190;6.808;2023-06-05T11:05:12;3.38;;;1.80;;
80503;SDS011;69825;51.190;6.808;2023-06-05T11:07:37;4.95;;;2.10;;
80503;SDS011;69825;51.190;6.808;2023-06-05T11:15:06;2.08;;;1.88;;
80503;SDS011;69825;51.190;6.808;2023-06-05T11:17:36;2.10;;;1.90;;
80503;SDS011;69825;51.190;6.808;2023-06-05T11:20:03;2.50;;;1.85;;
80503;SDS011;69825;51.190;6.808;2023-06-05T11:22:30;3.40;;;1.80;;
80503;SDS011;69825;51.190;6.808;2023-06-05T11:27:49;2.72;;;1.92;;
80503;SDS011;69825;51.190;6.808;2023-06-05T11:30:25;4.68;;;1.77;;
80503;SDS011;69825;51.190;6.808;2023-06-05T11:32:57;2.67;;;2.17;;
80503;SDS011;69825;51.190;6.808;2023-06-05T11:35:31;3.22;;;1.95;;
80503;SDS011;69825;51.190;6.808;2023-06-05T11:38:13;2.53;;;1.90;;
80503;SDS011;69825;51.190;6.808;2023-06-05T11:40:40;2.42;;;2.08;;
80503;SDS011;69825;51.190;6.808;2023-06-05T11:43:08;4.70;;;2.00;;
80503;SDS011;69825;51.190;6.808;2023-06-05T11:45:35;3.55;;;2.13;;
80503;SDS011;69825;51.190;6.808;2023-06-05T11:50:38;4.18;;;2.10;;
80503;SDS011;69825;51.190;6.808;2023-06-05T11:55:34;3.58;;;2.20;;
80503;SDS011;69825;51.190;6.808;2023-06-05T11:58:22;4.25;;;2.20;;
80503;SDS011;69825;51.190;6.808;2023-06-05T12:00:51;2.95;;;1.98;;
80503;SDS011;69825;51.190;6.808;2023-06-05T12:03:28;3.22;;;2.00;;
80503;SDS011;69825;51.190;6.808;2023-06-05T12:05:53;2.97;;;1.98;;
80503;SDS011;69825;51.190;6.808;2023-06-05T12:08:22;5.20;;;2.28;;
80503;SDS011;69825;51.190;6.808;2023-06-05T12:13:17;3.40;;;2.05;;
80503;SDS011;69825;51.190;6.808;2023-06-05T12:15:55;2.40;;;2.20;;
80503;SDS011;69825;51.190;6.808;2023-06-05T12:18:21;4.00;;;2.10;;
80503;SDS011;69825;51.190;6.808;2023-06-05T12:20:55;5.00;;;2.17;;
80503;SDS011;69825;51.190;6.808;2023-06-05T12:23:21;2.95;;;2.00;;
80503;SDS011;69825;51.190;6.808;2023-06-05T12:25:57;4.47;;;1.92;;
80503;SDS011;69825;51.190;6.808;2023-06-05T12:28:23;6.07;;;1.90;;
80503;SDS011;69825;51.190;6.808;2023-06-05T12:30:50;2.47;;;2.00;;
80503;SDS011;69825;51.190;6.808;2023-06-05T12:33:16;3.35;;;2.40;;
80503;SDS011;69825;51.190;6.808;2023-06-05T12:35:41;7.85;;;2.58;;
80503;SDS011;69825;51.190;6.808;2023-06-05T12:38:06;3.90;;;2.03;;
80503;SDS011;69825;51.190;6.808;2023-06-05T12:40:33;3.38;;;2.03;;
80503;SDS011;69825;51.190;6.808;2023-06-05T12:42:58;2.03;;;1.88;;
80503;SDS011;69825;51.190;6.808;2023-06-05T12:45:23;3.63;;;2.05;;
80503;SDS011;69825;51.190;6.808;2023-06-05T12:47:49;4.20;;;2.30;;
80503;SDS011;69825;51.190;6.808;2023-06-05T12:50:14;3.45;;;2.20;;
80503;SDS011;69825;51.190;6.808;2023-06-05T12:52:41;2.75;;;2.17;;
80503;SDS011;69825;51.190;6.808;2023-06-05T12:55:06;2.38;;;2.17;;
80503;SDS011;69825;51.190;6.808;2023-06-05T12:57:33;2.90;;;2.00;;
80503;SDS011;69825;51.190;6.808;2023-06-05T12:59:59;3.25;;;2.20;;
80503;SDS011;69825;51.190;6.808;2023-06-05T13:02:30;3.65;;;2.00;;
80503;SDS011;69825;51.190;6.808;2023-06-05T13:04:58;2.67;;;2.08;;
80503;SDS011;69825;51.190;6.808;2023-06-05T13:07:23;2.00;;;1.90;;
80503;SDS011;69825;51.190;6.808;2023-06-05T13:09:49;3.67;;;2.38;;
80503;SDS011;69825;51.190;6.808;2023-06-05T13:12:16;2.38;;;2.15;;
80503;SDS011;69825;51.190;6.808;2023-06-05T13:14:42;4.95;;;2.72;;
80503;SDS011;69825;51.190;6.808;2023-06-05T13:17:07;4.20;;;3.78;;
80503;SDS011;69825;51.190;6.808;2023-06-05T13:19:32;8.68;;;5.15;;
80503;SDS011;69825;51.190;6.808;2023-06-05T13:21:58;7.88;;;5.13;;
80503;SDS011;69825;51.190;6.808;2023-06-05T13:24:23;6.38;;;5.10;;
80503;SDS011;69825;51.190;6.808;2023-06-05T13:26:48;7.00;;;4.97;;
80503;SDS011;69825;51.190;6.808;2023-06-05T13:29:14;5.03;;;4.25;;
80503;SDS011;69825;51.190;6.808;2023-06-05T13:31:40;7.18;;;5.13;;
80503;SDS011;69825;51.190;6.808;2023-06-05T13:34:05;7.60;;;6.18;;
80503;SDS011;69825;51.190;6.808;2023-06-05T13:36:31;7.90;;;6.20;;
80503;SDS011;69825;51.190;6.808;2023-06-05T13:38:56;9.38;;;6.13;;
80503;SDS011;69825;51.190;6.808;2023-06-05T13:41:22;8.73;;;6.22;;
80503;SDS011;69825;51.190;6.808;2023-06-05T13:43:47;7.10;;;5.75;;
80503;SDS011;69825;51.190;6.808;2023-06-05T13:46:13;7.30;;;5.82;;
80503;SDS011;69825;51.190;6.808;2023-06-05T13:48:38;8.88;;;5.97;;
80503;SDS011;69825;51.190;6.808;2023-06-05T13:51:04;7.90;;;5.63;;
80503;SDS011;69825;51.190;6.808;2023-06-05T13:53:29;8.60;;;5.57;;
80503;SDS011;69825;51.190;6.808;2023-06-05T13:56:00;7.07;;;5.38;;
80503;SDS011;69825;51.190;6.808;2023-06-05T13:58:27;6.20;;;4.90;;
80503;SDS011;69825;51.190;6.808;2023-06-05T14:00:52;5.82;;;5.00;;
80503;SDS011;69825;51.190;6.808;2023-06-05T14:03:17;7.55;;;4.80;;
80503;SDS011;69825;51.190;6.808;2023-06-05T14:05:43;7.32;;;5.30;;
80503;SDS011;69825;51.190;6.808;2023-06-05T14:08:08;8.68;;;5.55;;
80503;SDS011;69825;51.190;6.808;2023-06-05T14:10:33;7.07;;;5.00;;
80503;SDS011;69825;51.190;6.808;2023-06-05T14:13:01;8.45;;;4.78;;
80503;SDS011;69825;51.190;6.808;2023-06-05T14:15:26;6.15;;;4.75;;
80503;SDS011;69825;51.190;6.808;2023-06-05T14:17:52;5.85;;;4.80;;
80503;SDS011;69825;51.190;6.808;2023-06-05T14:20:18;5.03;;;4.35;;
80503;SDS011;69825;51.190;6.808;2023-06-05T14:22:44;4.78;;;4.20;;
80503;SDS011;69825;51.190;6.808;2023-06-05T14:25:10;6.03;;;4.72;;
80503;SDS011;69825;51.190;6.808;2023-06-05T14:27:35;4.38;;;3.97;;
80503;SDS011;69825;51.190;6.808;2023-06-05T14:30:01;6.38;;;4.50;;
80503;SDS011;69825;51.190;6.808;2023-06-05T14:32:27;4.07;;;3.67;;
80503;SDS011;69825;51.190;6.808;2023-06-05T14:34:52;4.43;;;3.97;;
80503;SDS011;69825;51.190;6.808;2023-06-05T14:37:17;4.75;;;3.90;;
80503;SDS011;69825;51.190;6.808;2023-06-05T14:39:43;5.63;;;3.83;;
80503;SDS011;69825;51.190;6.808;2023-06-05T14:42:08;4.65;;;3.85;;
80503;SDS011;69825;51.190;6.808;2023-06-05T14:44:34;4.60;;;3.65;;
80503;SDS011;69825;51.190;6.808;2023-06-05T14:46:59;6.00;;;3.35;;
80503;SDS011;69825;51.190;6.808;2023-06-05T14:49:24;5.82;;;3.35;;
80503;SDS011;69825;51.190;6.808;2023-06-05T14:51:50;6.18;;;3.58;;
80503;SDS011;69825;51.190;6.808;2023-06-05T14:54:15;4.72;;;3.22;;
80503;SDS011;69825;51.190;6.808;2023-06-05T14:56:41;5.03;;;3.58;;
80503;SDS011;69825;51.190;6.808;2023-06-05T14:59:07;3.92;;;2.90;;
80503;SDS011;69825;51.190;6.808;2023-06-05T15:01:32;4.72;;;3.40;;
80503;SDS011;69825;51.190;6.808;2023-06-05T15:03:58;3.75;;;3.13;;
80503;SDS011;69825;51.190;6.808;2023-06-05T15:06:23;4.13;;;3.47;;
80503;SDS011;69825;51.190;6.808;2023-06-05T15:08:49;4.15;;;3.30;;
80503;SDS011;69825;51.190;6.808;2023-06-05T15:11:14;3.40;;;2.80;;
80503;SDS011;69825;51.190;6.808;2023-06-05T15:13:39;3.38;;;2.88;;
80503;SDS011;69825;51.190;6.808;2023-06-05T15:16:05;4.45;;;3.40;;
80503;SDS011;69825;51.190;6.808;2023-06-05T15:18:30;3.22;;;2.95;;
80503;SDS011;69825;51.190;6.808;2023-06-05T15:20:56;3.30;;;2.97;;